sensor_id;sensor_type;location;lat;lon;timestamp;P1;durP1;ratioP1;P2;durP2;ratioP2
31782;SDS011;18351;47.560;9.708;2023-08-06T00:01:48;5.28;;;3.40;;
31782;SDS011;18351;47.560;9.708;2023-08-06T00:04:14;4.20;;;3.80;;
31782;SDS011;18351;47.560;9.708;2023-08-06T00:06:39;4.15;;;3.75;;
31782;SDS011;18351;47.560;9.708;2023-08-06T00:09:05;3.67;;;3.38;;
31782;SDS011;18351;47.560;9.708;2023-08-06T00:11:30;9.32;;;3.72;;
31782;SDS011;18351;47.560;9.708;2023-08-06T00:13:56;3.38;;;2.97;;
31782;SDS011;18351;47.560;9.708;2023-08-06T00:16:22;5.97;;;3.60;;
31782;SDS011;18351;47.560;9.708;2023-08-06T00:18:48;3.88;;;3.47;;
31782;SDS011;18351;47.560;9.708;2023-08-06T00:21:13;4.40;;;2.90;;
31782;SDS011;18351;47.560;9.708;2023-08-06T00:23:39;3.20;;;2.92;;
31782;SDS011;18351;47.560;9.708;2023-08-06T00:26:05;3.15;;;2.85;;
31782;SDS011;18351;47.560;9.708;2023-08-06T00:28:31;3.75;;;2.75;;
31782;SDS011;18351;47.560;9.708;2023-08-06T00:30:56;3.45;;;3.10;;
31782;SDS011;18351;47.560;9.708;2023-08-06T00:33:22;2.97;;;2.78;;
31782;SDS011;18351;47.560;9.708;2023-08-06T00:35:49;5.88;;;2.90;;
31782;SDS011;18351;47.560;9.708;2023-08-06T00:38:14;4.10;;;3.15;;
31782;SDS011;18351;47.560;9.708;2023-08-06T00:40:40;3.88;;;3.15;;
31782;SDS011;18351;47.560;9.708;2023-08-06T00:43:06;3.58;;;3.00;;
31782;SDS011;18351;47.560;9.708;2023-08-06T00:45:33;3.88;;;3.10;;
31782;SDS011;18351;47.560;9.708;2023-08-06T00:48:00;3.35;;;3.05;;
31782;SDS011;18351;47.560;9.708;2023-08-06T00:50:26;4.13;;;3.30;;
31782;SDS011;18351;47.560;9.708;2023-08-06T00:52:52;3.70;;;3.13;;
31782;SDS011;18351;47.560;9.708;2023-08-06T00:55:19;3.80;;;3.50;;
31782;SDS011;18351;47.560;9.708;2023-08-06T00:57:44;7.00;;;3.65;;
31782;SDS011;18351;47.560;9.708;2023-08-06T01:00:10;4.38;;;3.83;;
31782;SDS011;18351;47.560;9.708;2023-08-06T01:02:36;3.83;;;3.40;;
31782;SDS011;18351;47.560;9.708;2023-08-06T01:05:02;3.70;;;3.40;;
31782;SDS011;18351;47.560;9.708;2023-08-06T01:09:59;4.00;;;3.60;;
31782;SDS011;18351;47.560;9.708;2023-08-06T01:15:38;4.78;;;4.30;;
31782;SDS011;18351;47.560;9.708;2023-08-06T01:18:08;4.00;;;3.30;;
31782;SDS011;18351;47.560;9.708;2023-08-06T01:20:35;4.50;;;4.10;;
31782;SDS011;18351;47.560;9.708;2023-08-06T01:23:00;4.32;;;3.92;;
31782;SDS011;18351;47.560;9.708;2023-08-06T01:25:28;7.03;;;4.20;;
31782;SDS011;18351;47.560;9.708;2023-08-06T01:27:59;4.65;;;3.70;;
31782;SDS011;18351;47.560;9.708;2023-08-06T01:30:43;6.25;;;3.88;;
31782;SDS011;18351;47.560;9.708;2023-08-06T01:33:14;4.07;;;3.40;;
31782;SDS011;18351;47.560;9.708;2023-08-06T01:35:44;6.45;;;3.80;;
31782;SDS011;18351;47.560;9.708;2023-08-06T01:38:11;6.25;;;3.97;;
31782;SDS011;18351;47.560;9.708;2023-08-06T01:40:36;4.35;;;3.80;;
31782;SDS011;18351;47.560;9.708;2023-08-06T01:43:02;4.18;;;3.70;;
31782;SDS011;18351;47.560;9.708;2023-08-06T01:45:27;6.25;;;4.53;;
31782;SDS011;18351;47.560;9.708;2023-08-06T01:47:53;4.90;;;4.40;;
31782;SDS011;18351;47.560;9.708;2023-08-06T01:50:19;4.22;;;3.72;;
31782;SDS011;18351;47.560;9.708;2023-08-06T01:52:44;3.70;;;3.22;;
31782;SDS011;18351;47.560;9.708;2023-08-06T01:55:10;5.35;;;4.25;;
31782;SDS011;18351;47.560;9.708;2023-08-06T01:57:35;3.97;;;3.47;;
31782;SDS011;18351;47.560;9.708;2023-08-06T02:00:01;4.40;;;3.95;;
31782;SDS011;18351;47.560;9.708;2023-08-06T02:02:27;4.97;;;3.50;;
31782;SDS011;18351;47.560;9.708;2023-08-06T02:04:53;8.65;;;3.80;;
31782;SDS011;18351;47.560;9.708;2023-08-06T02:07:18;4.20;;;3.80;;
31782;SDS011;18351;47.560;9.708;2023-08-06T02:09:44;4.13;;;3.40;;
31782;SDS011;18351;47.560;9.708;2023-08-06T02:12:09;4.03;;;3.63;;
31782;SDS011;18351;47.560;9.708;2023-08-06T02:14:35;4.47;;;3.45;;
31782;SDS011;18351;47.560;9.708;2023-08-06T02:17:00;3.97;;;3.47;;
31782;SDS011;18351;47.560;9.708;2023-08-06T02:19:26;3.53;;;3.05;;
31782;SDS011;18351;47.560;9.708;2023-08-06T02:21:51;3.35;;;3.05;;
31782;SDS011;18351;47.560;9.708;2023-08-06T02:24:17;3.53;;;2.92;;
31782;SDS011;18351;47.560;9.708;2023-08-06T02:26:42;3.50;;;2.95;;
31782;SDS011;18351;47.560;9.708;2023-08-06T02:29:08;5.20;;;3.00;;
31782;SDS011;18351;47.560;9.708;2023-08-06T02:31:33;3.10;;;2.80;;
31782;SDS011;18351;47.560;9.708;2023-08-06T02:33:59;4.68;;;3.15;;
31782;SDS011;18351;47.560;9.708;2023-08-06T02:36:25;4.13;;;2.72;;
31782;SDS011;18351;47.560;9.708;2023-08-06T02:38:54;5.18;;;2.95;;
31782;SDS011;18351;47.560;9.708;2023-08-06T02:41:20;3.30;;;2.75;;
31782;SDS011;18351;47.560;9.708;2023-08-06T02:43:45;3.95;;;3.00;;
31782;SDS011;18351;47.560;9.708;2023-08-06T02:46:11;3.22;;;2.92;;
31782;SDS011;18351;47.560;9.708;2023-08-06T02:48:36;3.83;;;3.25;;
31782;SDS011;18351;47.560;9.708;2023-08-06T02:51:02;4.28;;;3.40;;
31782;SDS011;18351;47.560;9.708;2023-08-06T02:53:27;5.93;;;3.63;;
31782;SDS011;18351;47.560;9.708;2023-08-06T02:55:53;6.75;;;3.97;;
31782;SDS011;18351;47.560;9.708;2023-08-06T02:58:19;5.25;;;3.70;;
31782;SDS011;18351;47.560;9.708;2023-08-06T03:00:58;5.25;;;3.83;;
31782;SDS011;18351;47.560;9.708;2023-08-06T03:03:28;7.28;;;4.18;;
31782;SDS011;18351;47.560;9.708;2023-08-06T03:05:54;5.65;;;3.78;;
31782;SDS011;18351;47.560;9.708;2023-08-06T03:08:20;5.03;;;3.70;;
31782;SDS011;18351;47.560;9.708;2023-08-06T03:10:48;3.50;;;3.10;;
31782;SDS011;18351;47.560;9.708;2023-08-06T03:13:15;4.78;;;4.00;;
31782;SDS011;18351;47.560;9.708;2023-08-06T03:15:51;4.03;;;3.55;;
31782;SDS011;18351;47.560;9.708;2023-08-06T03:18:18;7.00;;;4.00;;
31782;SDS011;18351;47.560;9.708;2023-08-06T03:20:44;5.45;;;3.90;;
31782;SDS011;18351;47.560;9.708;2023-08-06T03:23:10;8.57;;;5.30;;
31782;SDS011;18351;47.560;9.708;2023-08-06T03:25:35;5.32;;;4.05;;
31782;SDS011;18351;47.560;9.708;2023-08-06T03:28:01;3.83;;;3.42;;
31782;SDS011;18351;47.560;9.708;2023-08-06T03:30:27;4.18;;;3.40;;
31782;SDS011;18351;47.560;9.708;2023-08-06T03:32:53;4.40;;;3.97;;
31782;SDS011;18351;47.560;9.708;2023-08-06T03:35:18;6.68;;;3.65;;
31782;SDS011;18351;47.560;9.708;2023-08-06T03:37:44;4.60;;;3.13;;
31782;SDS011;18351;47.560;9.708;2023-08-06T03:40:10;4.43;;;3.03;;
31782;SDS011;18351;47.560;9.708;2023-08-06T03:42:35;4.05;;;3.60;;
31782;SDS011;18351;47.560;9.708;2023-08-06T03:45:01;5.50;;;2.95;;
31782;SDS011;18351;47.560;9.708;2023-08-06T03:47:27;4.97;;;3.83;;
31782;SDS011;18351;47.560;9.708;2023-08-06T03:49:52;3.25;;;2.83;;
31782;SDS011;18351;47.560;9.708;2023-08-06T03:52:18;6.35;;;3.60;;
31782;SDS011;18351;47.560;9.708;2023-08-06T03:54:43;6.47;;;3.03;;
31782;SDS011;18351;47.560;9.708;2023-08-06T03:57:09;5.72;;;3.22;;
31782;SDS011;18351;47.560;9.708;2023-08-06T03:59:35;4.70;;;3.38;;
31782;SDS011;18351;47.560;9.708;2023-08-06T04:02:01;3.78;;;2.67;;
31782;SDS011;18351;47.560;9.708;2023-08-06T04:04:27;4.85;;;3.00;;
31782;SDS011;18351;47.560;9.708;2023-08-06T04:06:52;4.28;;;2.90;;
31782;SDS011;18351;47.560;9.708;2023-08-06T04:09:18;4.90;;;3.38;;
31782;SDS011;18351;47.560;9.708;2023-08-06T04:11:44;2.72;;;2.42;;
31782;SDS011;18351;47.560;9.708;2023-08-06T04:14:09;5.35;;;3.13;;
31782;SDS011;18351;47.560;9.708;2023-08-06T04:16:35;4.13;;;3.05;;
31782;SDS011;18351;47.560;9.708;2023-08-06T04:19:00;3.30;;;2.70;;
31782;SDS011;18351;47.560;9.708;2023-08-06T04:21:26;4.78;;;3.00;;
31782;SDS011;18351;47.560;9.708;2023-08-06T04:23:51;3.53;;;2.55;;
31782;SDS011;18351;47.560;9.708;2023-08-06T04:26:17;4.03;;;2.78;;
31782;SDS011;18351;47.560;9.708;2023-08-06T04:28:42;2.67;;;2.47;;
31782;SDS011;18351;47.560;9.708;2023-08-06T04:31:08;3.30;;;2.78;;
31782;SDS011;18351;47.560;9.708;2023-08-06T04:33:33;6.85;;;2.80;;
31782;SDS011;18351;47.560;9.708;2023-08-06T04:35:59;3.67;;;2.40;;
31782;SDS011;18351;47.560;9.708;2023-08-06T04:38:25;2.92;;;2.47;;
31782;SDS011;18351;47.560;9.708;2023-08-06T04:40:51;4.32;;;2.28;;
31782;SDS011;18351;47.560;9.708;2023-08-06T04:43:16;8.43;;;4.28;;
31782;SDS011;18351;47.560;9.708;2023-08-06T04:45:45;2.45;;;2.10;;
31782;SDS011;18351;47.560;9.708;2023-08-06T04:48:12;2.47;;;2.28;;
31782;SDS011;18351;47.560;9.708;2023-08-06T04:50:38;4.07;;;2.40;;
31782;SDS011;18351;47.560;9.708;2023-08-06T04:53:03;3.40;;;2.47;;
31782;SDS011;18351;47.560;9.708;2023-08-06T04:55:29;3.20;;;2.22;;
31782;SDS011;18351;47.560;9.708;2023-08-06T04:57:54;2.67;;;2.20;;
31782;SDS011;18351;47.560;9.708;2023-08-06T05:00:20;3.83;;;1.77;;
31782;SDS011;18351;47.560;9.708;2023-08-06T05:02:45;2.92;;;2.08;;
31782;SDS011;18351;47.560;9.708;2023-08-06T05:05:11;2.10;;;1.85;;
31782;SDS011;18351;47.560;9.708;2023-08-06T05:07:36;4.30;;;1.90;;
31782;SDS011;18351;47.560;9.708;2023-08-06T05:10:02;3.83;;;1.88;;
31782;SDS011;18351;47.560;9.708;2023-08-06T05:12:29;3.83;;;2.00;;
31782;SDS011;18351;47.560;9.708;2023-08-06T05:14:54;2.47;;;1.83;;
31782;SDS011;18351;47.560;9.708;2023-08-06T05:17:20;3.85;;;2.00;;
31782;SDS011;18351;47.560;9.708;2023-08-06T05:19:47;3.95;;;1.90;;
31782;SDS011;18351;47.560;9.708;2023-08-06T05:22:13;2.85;;;1.90;;
31782;SDS011;18351;47.560;9.708;2023-08-06T05:24:38;2.72;;;2.30;;
31782;SDS011;18351;47.560;9.708;2023-08-06T05:27:04;5.07;;;2.45;;
31782;SDS011;18351;47.560;9.708;2023-08-06T05:29:30;3.00;;;2.05;;
31782;SDS011;18351;47.560;9.708;2023-08-06T05:31:56;4.40;;;1.88;;
31782;SDS011;18351;47.560;9.708;2023-08-06T05:34:21;3.83;;;1.83;;
31782;SDS011;18351;47.560;9.708;2023-08-06T05:36:47;4.93;;;1.95;;
31782;SDS011;18351;47.560;9.708;2023-08-06T05:39:12;3.17;;;1.80;;
31782;SDS011;18351;47.560;9.708;2023-08-06T05:41:38;3.15;;;1.50;;
31782;SDS011;18351;47.560;9.708;2023-08-06T05:44:03;3.58;;;1.10;;
31782;SDS011;18351;47.560;9.708;2023-08-06T05:46:29;2.08;;;1.30;;
31782;SDS011;18351;47.560;9.708;2023-08-06T05:48:55;3.42;;;1.20;;
31782;SDS011;18351;47.560;9.708;2023-08-06T05:51:20;5.28;;;1.50;;
31782;SDS011;18351;47.560;9.708;2023-08-06T05:53:46;3.28;;;1.17;;
31782;SDS011;18351;47.560;9.708;2023-08-06T05:56:12;1.05;;;0.60;;
31782;SDS011;18351;47.560;9.708;2023-08-06T05:58:37;5.47;;;0.88;;
31782;SDS011;18351;47.560;9.708;2023-08-06T06:01:03;4.07;;;1.83;;
31782;SDS011;18351;47.560;9.708;2023-08-06T06:03:28;4.47;;;1.20;;
31782;SDS011;18351;47.560;9.708;2023-08-06T06:05:54;1.40;;;0.85;;
31782;SDS011;18351;47.560;9.708;2023-08-06T06:08:19;1.95;;;0.77;;
31782;SDS011;18351;47.560;9.708;2023-08-06T06:10:45;4.35;;;1.08;;
31782;SDS011;18351;47.560;9.708;2023-08-06T06:13:11;4.47;;;1.15;;
31782;SDS011;18351;47.560;9.708;2023-08-06T06:15:36;5.38;;;1.05;;
31782;SDS011;18351;47.560;9.708;2023-08-06T06:18:03;4.53;;;1.17;;
31782;SDS011;18351;47.560;9.708;2023-08-06T06:20:28;2.88;;;0.85;;
31782;SDS011;18351;47.560;9.708;2023-08-06T06:22:54;0.85;;;0.70;;
31782;SDS011;18351;47.560;9.708;2023-08-06T06:25:19;2.60;;;0.80;;
31782;SDS011;18351;47.560;9.708;2023-08-06T06:27:45;2.42;;;0.98;;
31782;SDS011;18351;47.560;9.708;2023-08-06T06:30:10;2.80;;;0.90;;
31782;SDS011;18351;47.560;9.708;2023-08-06T06:32:37;4.13;;;1.25;;
31782;SDS011;18351;47.560;9.708;2023-08-06T06:35:02;1.80;;;0.80;;
31782;SDS011;18351;47.560;9.708;2023-08-06T06:37:28;2.20;;;0.80;;
31782;SDS011;18351;47.560;9.708;2023-08-06T06:39:54;4.35;;;0.95;;
31782;SDS011;18351;47.560;9.708;2023-08-06T06:42:19;1.90;;;0.90;;
31782;SDS011;18351;47.560;9.708;2023-08-06T06:44:45;3.67;;;0.77;;
31782;SDS011;18351;47.560;9.708;2023-08-06T06:47:11;1.17;;;0.90;;
31782;SDS011;18351;47.560;9.708;2023-08-06T06:49:36;2.17;;;0.73;;
31782;SDS011;18351;47.560;9.708;2023-08-06T06:52:02;2.58;;;0.75;;
31782;SDS011;18351;47.560;9.708;2023-08-06T06:54:27;1.13;;;0.70;;
31782;SDS011;18351;47.560;9.708;2023-08-06T06:56:53;1.70;;;0.80;;
31782;SDS011;18351;47.560;9.708;2023-08-06T06:59:19;2.50;;;0.80;;
31782;SDS011;18351;47.560;9.708;2023-08-06T07:01:44;1.02;;;0.60;;
31782;SDS011;18351;47.560;9.708;2023-08-06T07:04:10;1.10;;;0.60;;
31782;SDS011;18351;47.560;9.708;2023-08-06T07:06:35;2.65;;;0.90;;
31782;SDS011;18351;47.560;9.708;2023-08-06T07:09:01;1.60;;;0.80;;
31782;SDS011;18351;47.560;9.708;2023-08-06T07:11:26;1.15;;;0.77;;
31782;SDS011;18351;47.560;9.708;2023-08-06T07:13:56;2.85;;;1.02;;
31782;SDS011;18351;47.560;9.708;2023-08-06T07:16:25;0.75;;;0.60;;
31782;SDS011;18351;47.560;9.708;2023-08-06T07:18:52;1.85;;;0.77;;
31782;SDS011;18351;47.560;9.708;2023-08-06T07:21:18;1.73;;;0.70;;
31782;SDS011;18351;47.560;9.708;2023-08-06T07:23:45;5.47;;;1.15;;
31782;SDS011;18351;47.560;9.708;2023-08-06T07:26:11;4.05;;;0.93;;
31782;SDS011;18351;47.560;9.708;2023-08-06T07:28:36;1.20;;;0.60;;
31782;SDS011;18351;47.560;9.708;2023-08-06T07:31:02;1.83;;;0.70;;
31782;SDS011;18351;47.560;9.708;2023-08-06T07:33:28;0.98;;;0.60;;
31782;SDS011;18351;47.560;9.708;2023-08-06T07:35:54;0.77;;;0.50;;
31782;SDS011;18351;47.560;9.708;2023-08-06T07:38:20;1.83;;;0.70;;
31782;SDS011;18351;47.560;9.708;2023-08-06T07:40:46;1.35;;;0.52;;
31782;SDS011;18351;47.560;9.708;2023-08-06T07:43:11;2.45;;;0.80;;
31782;SDS011;18351;47.560;9.708;2023-08-06T07:45:37;2.83;;;0.90;;
31782;SDS011;18351;47.560;9.708;2023-08-06T07:48:03;2.08;;;0.77;;
31782;SDS011;18351;47.560;9.708;2023-08-06T07:50:29;1.35;;;0.70;;
31782;SDS011;18351;47.560;9.708;2023-08-06T07:52:55;2.70;;;0.55;;
31782;SDS011;18351;47.560;9.708;2023-08-06T07:55:20;5.35;;;0.65;;
31782;SDS011;18351;47.560;9.708;2023-08-06T07:57:46;2.38;;;1.13;;
31782;SDS011;18351;47.560;9.708;2023-08-06T08:00:11;0.40;;;0.40;;
31782;SDS011;18351;47.560;9.708;2023-08-06T08:02:37;0.60;;;0.60;;
31782;SDS011;18351;47.560;9.708;2023-08-06T08:05:03;2.42;;;0.63;;
31782;SDS011;18351;47.560;9.708;2023-08-06T08:07:28;2.97;;;0.80;;
31782;SDS011;18351;47.560;9.708;2023-08-06T08:09:55;1.40;;;0.65;;
31782;SDS011;18351;47.560;9.708;2023-08-06T08:12:21;1.50;;;0.60;;
31782;SDS011;18351;47.560;9.708;2023-08-06T08:14:47;1.10;;;0.50;;
31782;SDS011;18351;47.560;9.708;2023-08-06T08:17:13;1.38;;;0.60;;
31782;SDS011;18351;47.560;9.708;2023-08-06T08:19:39;1.13;;;0.60;;
31782;SDS011;18351;47.560;9.708;2023-08-06T08:22:05;0.50;;;0.50;;
31782;SDS011;18351;47.560;9.708;2023-08-06T08:24:30;1.13;;;0.55;;
31782;SDS011;18351;47.560;9.708;2023-08-06T08:26:56;1.17;;;0.45;;
31782;SDS011;18351;47.560;9.708;2023-08-06T08:29:22;2.03;;;0.73;;
31782;SDS011;18351;47.560;9.708;2023-08-06T08:31:48;1.00;;;0.50;;
31782;SDS011;18351;47.560;9.708;2023-08-06T08:34:16;0.98;;;0.73;;
31782;SDS011;18351;47.560;9.708;2023-08-06T08:36:42;2.55;;;1.73;;
31782;SDS011;18351;47.560;9.708;2023-08-06T08:39:08;1.17;;;0.50;;
31782;SDS011;18351;47.560;9.708;2023-08-06T08:41:34;1.50;;;0.70;;
31782;SDS011;18351;47.560;9.708;2023-08-06T08:44:02;1.83;;;0.50;;
31782;SDS011;18351;47.560;9.708;2023-08-06T08:46:33;1.88;;;0.90;;
31782;SDS011;18351;47.560;9.708;2023-08-06T08:49:01;3.50;;;2.33;;
31782;SDS011;18351;47.560;9.708;2023-08-06T08:51:27;2.30;;;1.98;;
31782;SDS011;18351;47.560;9.708;2023-08-06T08:53:54;1.70;;;0.80;;
31782;SDS011;18351;47.560;9.708;2023-08-06T08:56:23;1.52;;;0.68;;
31782;SDS011;18351;47.560;9.708;2023-08-06T08:58:49;2.70;;;0.70;;
31782;SDS011;18351;47.560;9.708;2023-08-06T09:01:18;4.07;;;1.00;;
31782;SDS011;18351;47.560;9.708;2023-08-06T09:03:44;1.17;;;0.60;;
31782;SDS011;18351;47.560;9.708;2023-08-06T09:06:11;4.55;;;0.90;;
31782;SDS011;18351;47.560;9.708;2023-08-06T09:08:42;1.83;;;1.02;;
31782;SDS011;18351;47.560;9.708;2023-08-06T09:11:15;1.52;;;0.60;;
31782;SDS011;18351;47.560;9.708;2023-08-06T09:13:42;0.60;;;0.60;;
31782;SDS011;18351;47.560;9.708;2023-08-06T09:16:07;1.75;;;0.65;;
31782;SDS011;18351;47.560;9.708;2023-08-06T09:18:33;2.03;;;0.60;;
31782;SDS011;18351;47.560;9.708;2023-08-06T09:20:58;1.85;;;0.60;;
31782;SDS011;18351;47.560;9.708;2023-08-06T09:23:28;1.48;;;0.70;;
31782;SDS011;18351;47.560;9.708;2023-08-06T09:25:55;0.50;;;0.50;;
31782;SDS011;18351;47.560;9.708;2023-08-06T09:28:21;2.58;;;1.30;;
31782;SDS011;18351;47.560;9.708;2023-08-06T09:30:47;1.50;;;0.55;;
31782;SDS011;18351;47.560;9.708;2023-08-06T09:33:17;1.88;;;0.40;;
31782;SDS011;18351;47.560;9.708;2023-08-06T09:35:43;0.70;;;0.60;;
31782;SDS011;18351;47.560;9.708;2023-08-06T09:38:10;1.77;;;0.70;;
31782;SDS011;18351;47.560;9.708;2023-08-06T09:40:36;2.72;;;0.85;;
31782;SDS011;18351;47.560;9.708;2023-08-06T09:43:03;2.22;;;0.55;;
31782;SDS011;18351;47.560;9.708;2023-08-06T09:45:33;2.95;;;0.85;;
31782;SDS011;18351;47.560;9.708;2023-08-06T09:48:01;3.08;;;0.70;;
31782;SDS011;18351;47.560;9.708;2023-08-06T09:50:32;1.83;;;0.45;;
31782;SDS011;18351;47.560;9.708;2023-08-06T09:53:03;0.35;;;0.35;;
31782;SDS011;18351;47.560;9.708;2023-08-06T09:55:29;1.83;;;0.50;;
31782;SDS011;18351;47.560;9.708;2023-08-06T09:57:56;0.50;;;0.50;;
31782;SDS011;18351;47.560;9.708;2023-08-06T10:00:24;0.30;;;0.30;;
31782;SDS011;18351;47.560;9.708;2023-08-06T10:02:50;0.35;;;0.30;;
31782;SDS011;18351;47.560;9.708;2023-08-06T10:05:16;0.35;;;0.32;;
31782;SDS011;18351;47.560;9.708;2023-08-06T10:07:43;0.30;;;0.30;;
31782;SDS011;18351;47.560;9.708;2023-08-06T10:10:10;0.45;;;0.30;;
31782;SDS011;18351;47.560;9.708;2023-08-06T10:12:37;1.80;;;0.30;;
31782;SDS011;18351;47.560;9.708;2023-08-06T10:15:07;0.40;;;0.40;;
31782;SDS011;18351;47.560;9.708;2023-08-06T10:17:37;0.35;;;0.30;;
31782;SDS011;18351;47.560;9.708;2023-08-06T10:20:04;0.80;;;0.40;;
31782;SDS011;18351;47.560;9.708;2023-08-06T10:22:32;0.40;;;0.38;;
31782;SDS011;18351;47.560;9.708;2023-08-06T10:24:59;0.70;;;0.57;;
31782;SDS011;18351;47.560;9.708;2023-08-06T10:27:40;0.45;;;0.38;;
31782;SDS011;18351;47.560;9.708;2023-08-06T10:30:24;1.33;;;0.70;;
31782;SDS011;18351;47.560;9.708;2023-08-06T10:32:57;1.35;;;0.43;;
31782;SDS011;18351;47.560;9.708;2023-08-06T10:38:12;0.60;;;0.38;;
31782;SDS011;18351;47.560;9.708;2023-08-06T10:43:34;1.23;;;1.00;;
31782;SDS011;18351;47.560;9.708;2023-08-06T10:46:03;2.05;;;0.40;;
31782;SDS011;18351;47.560;9.708;2023-08-06T10:51:08;0.35;;;0.35;;
31782;SDS011;18351;47.560;9.708;2023-08-06T10:53:35;0.30;;;0.30;;
31782;SDS011;18351;47.560;9.708;2023-08-06T10:56:01;1.35;;;0.50;;
31782;SDS011;18351;47.560;9.708;2023-08-06T10:58:36;0.50;;;0.50;;
31782;SDS011;18351;47.560;9.708;2023-08-06T11:01:02;0.40;;;0.40;;
31782;SDS011;18351;47.560;9.708;2023-08-06T11:03:28;3.33;;;0.40;;
31782;SDS011;18351;47.560;9.708;2023-08-06T11:05:53;0.30;;;0.30;;
31782;SDS011;18351;47.560;9.708;2023-08-06T11:08:25;0.63;;;0.30;;
31782;SDS011;18351;47.560;9.708;2023-08-06T11:10:51;0.30;;;0.30;;
31782;SDS011;18351;47.560;9.708;2023-08-06T11:13:17;0.98;;;0.30;;
31782;SDS011;18351;47.560;9.708;2023-08-06T11:15:44;0.38;;;0.20;;
31782;SDS011;18351;47.560;9.708;2023-08-06T11:18:10;0.45;;;0.40;;
31782;SDS011;18351;47.560;9.708;2023-08-06T11:20:36;0.50;;;0.50;;
31782;SDS011;18351;47.560;9.708;2023-08-06T11:23:02;0.30;;;0.30;;
31782;SDS011;18351;47.560;9.708;2023-08-06T11:25:28;0.50;;;0.30;;
31782;SDS011;18351;47.560;9.708;2023-08-06T11:27:54;2.08;;;0.40;;
31782;SDS011;18351;47.560;9.708;2023-08-06T11:30:19;2.85;;;0.40;;
31782;SDS011;18351;47.560;9.708;2023-08-06T11:32:46;0.30;;;0.30;;
31782;SDS011;18351;47.560;9.708;2023-08-06T11:35:13;0.47;;;0.43;;
31782;SDS011;18351;47.560;9.708;2023-08-06T11:37:42;0.77;;;0.40;;
31782;SDS011;18351;47.560;9.708;2023-08-06T11:40:09;0.30;;;0.30;;
31782;SDS011;18351;47.560;9.708;2023-08-06T11:42:36;0.90;;;0.30;;
31782;SDS011;18351;47.560;9.708;2023-08-06T11:45:02;0.25;;;0.25;;
31782;SDS011;18351;47.560;9.708;2023-08-06T11:47:29;0.30;;;0.30;;
31782;SDS011;18351;47.560;9.708;2023-08-06T11:49:55;0.30;;;0.30;;
31782;SDS011;18351;47.560;9.708;2023-08-06T11:52:21;0.22;;;0.22;;
31782;SDS011;18351;47.560;9.708;2023-08-06T11:57:36;0.22;;;0.22;;
31782;SDS011;18351;47.560;9.708;2023-08-06T12:00:07;1.88;;;0.40;;
31782;SDS011;18351;47.560;9.708;2023-08-06T12:02:35;0.82;;;0.30;;
31782;SDS011;18351;47.560;9.708;2023-08-06T12:07:37;0.30;;;0.20;;
31782;SDS011;18351;47.560;9.708;2023-08-06T12:10:04;0.20;;;0.20;;
31782;SDS011;18351;47.560;9.708;2023-08-06T12:12:30;0.28;;;0.28;;
31782;SDS011;18351;47.560;9.708;2023-08-06T12:14:56;0.30;;;0.30;;
31782;SDS011;18351;47.560;9.708;2023-08-06T12:17:25;0.20;;;0.20;;
31782;SDS011;18351;47.560;9.708;2023-08-06T12:19:51;0.30;;;0.30;;
31782;SDS011;18351;47.560;9.708;2023-08-06T12:22:16;0.68;;;0.50;;
31782;SDS011;18351;47.560;9.708;2023-08-06T12:24:43;0.28;;;0.28;;
31782;SDS011;18351;47.560;9.708;2023-08-06T12:27:10;0.50;;;0.50;;
31782;SDS011;18351;47.560;9.708;2023-08-06T12:29:37;0.28;;;0.25;;
31782;SDS011;18351;47.560;9.708;2023-08-06T12:32:05;0.30;;;0.30;;
31782;SDS011;18351;47.560;9.708;2023-08-06T12:34:31;0.65;;;0.30;;
31782;SDS011;18351;47.560;9.708;2023-08-06T12:36:56;0.32;;;0.30;;
31782;SDS011;18351;47.560;9.708;2023-08-06T12:39:22;0.30;;;0.30;;
31782;SDS011;18351;47.560;9.708;2023-08-06T12:41:47;0.47;;;0.30;;
31782;SDS011;18351;47.560;9.708;2023-08-06T12:44:13;0.30;;;0.30;;
31782;SDS011;18351;47.560;9.708;2023-08-06T12:46:39;0.57;;;0.40;;
31782;SDS011;18351;47.560;9.708;2023-08-06T12:49:05;0.35;;;0.30;;
31782;SDS011;18351;47.560;9.708;2023-08-06T12:51:30;0.30;;;0.30;;
31782;SDS011;18351;47.560;9.708;2023-08-06T12:53:58;0.30;;;0.28;;
31782;SDS011;18351;47.560;9.708;2023-08-06T12:56:24;0.40;;;0.40;;
31782;SDS011;18351;47.560;9.708;2023-08-06T12:58:50;0.30;;;0.30;;
31782;SDS011;18351;47.560;9.708;2023-08-06T13:01:15;0.68;;;0.40;;
31782;SDS011;18351;47.560;9.708;2023-08-06T13:03:42;0.28;;;0.28;;
31782;SDS011;18351;47.560;9.708;2023-08-06T13:06:08;2.10;;;0.40;;
31782;SDS011;18351;47.560;9.708;2023-08-06T13:08:34;0.50;;;0.40;;
31782;SDS011;18351;47.560;9.708;2023-08-06T13:11:00;0.73;;;0.50;;
31782;SDS011;18351;47.560;9.708;2023-08-06T13:13:26;3.47;;;0.55;;
31782;SDS011;18351;47.560;9.708;2023-08-06T13:15:52;0.40;;;0.40;;
31782;SDS011;18351;47.560;9.708;2023-08-06T13:18:17;0.63;;;0.50;;
31782;SDS011;18351;47.560;9.708;2023-08-06T13:20:43;0.40;;;0.40;;
31782;SDS011;18351;47.560;9.708;2023-08-06T13:23:08;0.30;;;0.30;;
31782;SDS011;18351;47.560;9.708;2023-08-06T13:25:34;0.88;;;0.45;;
31782;SDS011;18351;47.560;9.708;2023-08-06T13:28:04;0.30;;;0.30;;
31782;SDS011;18351;47.560;9.708;2023-08-06T13:30:30;0.30;;;0.30;;
31782;SDS011;18351;47.560;9.708;2023-08-06T13:32:55;2.90;;;0.40;;
31782;SDS011;18351;47.560;9.708;2023-08-06T13:35:21;2.75;;;0.38;;
31782;SDS011;18351;47.560;9.708;2023-08-06T13:37:48;0.38;;;0.30;;
31782;SDS011;18351;47.560;9.708;2023-08-06T13:40:14;0.30;;;0.30;;
31782;SDS011;18351;47.560;9.708;2023-08-06T13:42:39;1.13;;;0.43;;
31782;SDS011;18351;47.560;9.708;2023-08-06T13:45:05;0.55;;;0.55;;
31782;SDS011;18351;47.560;9.708;2023-08-06T13:47:31;0.75;;;0.50;;
31782;SDS011;18351;47.560;9.708;2023-08-06T13:49:57;2.13;;;0.40;;
31782;SDS011;18351;47.560;9.708;2023-08-06T13:52:24;0.30;;;0.30;;
31782;SDS011;18351;47.560;9.708;2023-08-06T13:54:50;1.05;;;0.30;;
31782;SDS011;18351;47.560;9.708;2023-08-06T13:57:16;0.50;;;0.40;;
31782;SDS011;18351;47.560;9.708;2023-08-06T13:59:42;0.40;;;0.38;;
31782;SDS011;18351;47.560;9.708;2023-08-06T14:02:08;0.30;;;0.30;;
31782;SDS011;18351;47.560;9.708;2023-08-06T14:04:34;2.95;;;0.32;;
31782;SDS011;18351;47.560;9.708;2023-08-06T14:07:00;0.40;;;0.40;;
31782;SDS011;18351;47.560;9.708;2023-08-06T14:09:26;0.70;;;0.30;;
31782;SDS011;18351;47.560;9.708;2023-08-06T14:11:51;0.52;;;0.30;;
31782;SDS011;18351;47.560;9.708;2023-08-06T14:14:17;0.40;;;0.30;;
31782;SDS011;18351;47.560;9.708;2023-08-06T14:16:42;0.30;;;0.30;;
31782;SDS011;18351;47.560;9.708;2023-08-06T14:19:08;1.17;;;0.30;;
31782;SDS011;18351;47.560;9.708;2023-08-06T14:21:33;0.30;;;0.30;;
31782;SDS011;18351;47.560;9.708;2023-08-06T14:23:59;0.20;;;0.20;;
31782;SDS011;18351;47.560;9.708;2023-08-06T14:26:24;0.65;;;0.40;;
31782;SDS011;18351;47.560;9.708;2023-08-06T14:28:50;4.05;;;0.40;;
31782;SDS011;18351;47.560;9.708;2023-08-06T14:31:19;0.30;;;0.30;;
31782;SDS011;18351;47.560;9.708;2023-08-06T14:33:45;0.45;;;0.30;;
31782;SDS011;18351;47.560;9.708;2023-08-06T14:36:11;0.70;;;0.50;;
31782;SDS011;18351;47.560;9.708;2023-08-06T14:38:36;0.30;;;0.30;;
31782;SDS011;18351;47.560;9.708;2023-08-06T14:41:02;0.30;;;0.30;;
31782;SDS011;18351;47.560;9.708;2023-08-06T14:43:28;0.77;;;0.32;;
31782;SDS011;18351;47.560;9.708;2023-08-06T14:45:53;1.33;;;0.47;;
31782;SDS011;18351;47.560;9.708;2023-08-06T14:48:19;0.75;;;0.47;;
31782;SDS011;18351;47.560;9.708;2023-08-06T14:50:44;4.78;;;0.60;;
31782;SDS011;18351;47.560;9.708;2023-08-06T14:53:10;0.93;;;0.73;;
31782;SDS011;18351;47.560;9.708;2023-08-06T14:55:37;0.40;;;0.40;;
31782;SDS011;18351;47.560;9.708;2023-08-06T14:58:02;4.90;;;0.60;;
31782;SDS011;18351;47.560;9.708;2023-08-06T15:00:28;0.90;;;0.50;;
31782;SDS011;18351;47.560;9.708;2023-08-06T15:02:54;2.00;;;0.75;;